Naval Surface Weapons Center, Virginia
Current Conditions -  °F | °C
As of 12:56 PM on Sunday 21 Dec 2014 (Local Time) from KNYG Reporting Station
Broken Clouds Broken Clouds  
Wind Chill: 41°   Ceiling: 6500
Heat Index: 41°   Visibility: 10mi
Dew Point: 25°   Wind: 3mph
Humidity: 53%   Direction: 90°E
Pressure: 30.34"   Gusts: NA
Location:  38.3387°N, 77.0429°W
Report Text: KNYG 211756Z AUTO 09003KT 10SM BKN065 05/M04 A3034 RMK AO2 SLP274 T00501039 10050 20011 58016 $
Loading
Personal Weather Stations






























Interactive Weather Map New forecast layout! Learn more

10-Day Weather Forecast

Advertisements
Track Severe Weather on mobile